Time;durP1;ratioP1;P1;durP2;ratioP2;P2;SDS_P1;SDS_P2;PMS_P1;PMS_P2;Temp;Humidity;BMP_temperature;BMP_pressure;BME280_temperature;BME280_humidity;BME280_pressure;Samples;Min_cycle;Max_cycle;Signal;HPM_P1;HPM_P2
2022/06/14 00:00:55;;;;;;;12.38;5.20;;;;;;;;;;5313892;27;20054;-81
2022/06/14 00:03:26;;;;;;;15.57;6.05;;;;;;;;;;5316316;27;20027;-81
2022/06/14 00:05:59;;;;;;;22.90;6.53;;;;;;;;;;5296405;27;20407;-81
2022/06/14 00:08:30;;;;;;;12.90;5.57;;;;;;;;;;5302486;27;20323;-81
2022/06/14 00:11:05;;;;;;;11.85;4.38;;;;;;;;;;5313277;27;20031;-81
2022/06/14 00:13:36;;;;;;;9.55;4.47;;;;;;;;;;5310816;27;20047;-81
2022/06/14 00:16:08;;;;;;;11.88;5.13;;;;;;;;;;5322915;27;20032;-81
2022/06/14 00:18:39;;;;;;;13.85;5.35;;;;;;;;;;5291122;27;20039;-81
2022/06/14 00:21:11;;;;;;;16.42;5.60;;;;;;;;;;5318272;27;20046;-81
2022/06/14 00:23:42;;;;;;;11.85;5.03;;;;;;;;;;5309516;27;20032;-81
2022/06/14 00:26:13;;;;;;;13.95;5.90;;;;;;;;;;5300157;27;20059;-81
2022/06/14 00:28:45;;;;;;;7.70;4.32;;;;;;;;;;5293953;27;20028;-81
2022/06/14 00:31:20;;;;;;;13.05;5.47;;;;;;;;;;5315652;27;20019;-81
2022/06/14 00:33:52;;;;;;;8.77;4.63;;;;;;;;;;5319421;27;20159;-81
2022/06/14 00:36:28;;;;;;;8.43;4.90;;;;;;;;;;5309477;27;20444;-81
2022/06/14 00:39:01;;;;;;;11.52;5.65;;;;;;;;;;5315532;27;20433;-81
2022/06/14 00:41:44;;;;;;;15.07;7.80;;;;;;;;;;5296179;27;20076;-81
2022/06/14 00:44:26;;;;;;;19.98;7.63;;;;;;;;;;5318378;27;20032;-81
2022/06/14 00:47:03;;;;;;;12.23;6.00;;;;;;;;;;5291759;27;20473;-82
2022/06/14 00:49:47;;;;;;;16.05;7.80;;;;;;;;;;5301014;27;20380;-81
2022/06/14 00:52:20;;;;;;;17.73;7.22;;;;;;;;;;5312829;27;20376;-82
2022/06/14 00:54:53;;;;;;;15.70;7.20;;;;;;;;;;5316883;27;20054;-82
2022/06/14 00:57:26;;;;;;;17.95;7.22;;;;;;;;;;5322707;27;20192;-82
2022/06/14 01:00:06;;;;;;;26.50;8.80;;;;;;;;;;5308997;27;20033;-82
2022/06/14 01:02:44;;;;;;;19.90;8.02;;;;;;;;;;5324148;27;20034;-82
2022/06/14 01:05:18;;;;;;;12.43;7.45;;;;;;;;;;5314835;27;20041;-82
2022/06/14 01:07:52;;;;;;;18.45;7.63;;;;;;;;;;5319808;27;20024;-82
2022/06/14 01:10:25;;;;;;;15.00;7.65;;;;;;;;;;5312046;27;20035;-82
2022/06/14 01:13:00;;;;;;;13.20;6.85;;;;;;;;;;5291550;27;20132;-82
2022/06/14 01:15:32;;;;;;;15.90;7.68;;;;;;;;;;5312729;27;20032;-82
2022/06/14 01:18:07;;;;;;;11.85;6.70;;;;;;;;;;5315590;27;21744;-82
2022/06/14 01:20:38;;;;;;;12.90;7.43;;;;;;;;;;5312826;27;20132;-82
2022/06/14 01:23:12;;;;;;;15.05;6.75;;;;;;;;;;5311082;27;20495;-82
2022/06/14 01:25:45;;;;;;;11.57;6.60;;;;;;;;;;5313063;27;20581;-82
2022/06/14 01:28:18;;;;;;;19.27;8.93;;;;;;;;;;5303869;27;20024;-82
2022/06/14 01:30:51;;;;;;;16.90;7.32;;;;;;;;;;5316442;27;20442;-81
2022/06/14 01:33:33;;;;;;;13.38;7.50;;;;;;;;;;5314028;27;20044;-82
2022/06/14 01:36:07;;;;;;;12.60;7.70;;;;;;;;;;5318148;27;20034;-82
2022/06/14 01:38:39;;;;;;;16.67;6.72;;;;;;;;;;5319113;27;20094;-82
2022/06/14 01:41:27;;;;;;;15.82;7.85;;;;;;;;;;5318736;27;20028;-82
2022/06/14 01:43:59;;;;;;;17.05;7.57;;;;;;;;;;5315940;27;20175;-82
2022/06/14 01:46:50;;;;;;;14.68;8.30;;;;;;;;;;5313872;27;20114;-82
2022/06/14 01:52:17;;;;;;;16.38;7.97;;;;;;;;;;5311110;27;20049;-82
2022/06/14 01:55:05;;;;;;;13.10;6.90;;;;;;;;;;5308587;27;20492;-82
2022/06/14 01:57:36;;;;;;;14.63;7.63;;;;;;;;;;5316244;27;20060;-82
2022/06/14 02:00:07;;;;;;;15.33;7.07;;;;;;;;;;5311682;27;20111;-82
2022/06/14 02:02:44;;;;;;;12.25;7.18;;;;;;;;;;5314276;27;20347;-82
2022/06/14 02:05:18;;;;;;;17.02;7.93;;;;;;;;;;5311800;27;20115;-82
2022/06/14 02:07:55;;;;;;;12.40;7.22;;;;;;;;;;5312781;27;20036;-82
2022/06/14 02:10:36;;;;;;;12.73;7.47;;;;;;;;;;5314640;27;20488;-82
2022/06/14 02:13:16;;;;;;;13.57;7.43;;;;;;;;;;5311852;27;20064;-82
2022/06/14 02:15:47;;;;;;;15.35;6.97;;;;;;;;;;5310702;27;20438;-82
2022/06/14 02:18:24;;;;;;;16.27;7.70;;;;;;;;;;5318444;27;20031;-82
2022/06/14 02:20:55;;;;;;;23.45;10.00;;;;;;;;;;5316604;27;20281;-82
2022/06/14 02:23:28;;;;;;;13.23;7.85;;;;;;;;;;5311620;27;20361;-82
2022/06/14 02:26:14;;;;;;;12.02;7.32;;;;;;;;;;5312669;27;20035;-82
2022/06/14 02:28:51;;;;;;;12.15;7.57;;;;;;;;;;5312302;27;20143;-83
2022/06/14 02:31:29;;;;;;;16.02;8.20;;;;;;;;;;5312389;27;20407;-82
2022/06/14 02:34:05;;;;;;;15.40;8.20;;;;;;;;;;5311378;27;20049;-82
2022/06/14 02:36:48;;;;;;;12.88;7.38;;;;;;;;;;5314420;27;20025;-82
2022/06/14 02:39:40;;;;;;;18.88;8.07;;;;;;;;;;5300216;27;20024;-82
2022/06/14 02:42:14;;;;;;;15.57;9.10;;;;;;;;;;5296898;27;20148;-82
2022/06/14 02:44:53;;;;;;;21.52;10.18;;;;;;;;;;5313530;27;20404;-82
2022/06/14 02:47:32;;;;;;;19.83;7.22;;;;;;;;;;5315039;27;20055;-82
2022/06/14 02:50:03;;;;;;;13.27;7.75;;;;;;;;;;5311164;27;20052;-82
2022/06/14 02:52:41;;;;;;;12.50;7.00;;;;;;;;;;5317378;27;20441;-82
2022/06/14 02:55:17;;;;;;;14.23;7.07;;;;;;;;;;5291518;27;20100;-82
2022/06/14 02:57:52;;;;;;;14.65;8.95;;;;;;;;;;5314112;27;20020;-82
2022/06/14 03:00:29;;;;;;;14.38;8.13;;;;;;;;;;5314087;27;20115;-82
2022/06/14 03:03:03;;;;;;;16.25;8.88;;;;;;;;;;5311273;27;20097;-82
2022/06/14 03:05:54;;;;;;;22.58;10.00;;;;;;;;;;5313131;27;20032;-82
2022/06/14 03:08:31;;;;;;;21.08;9.88;;;;;;;;;;5315008;27;20027;-82
2022/06/14 03:11:02;;;;;;;;;;;;;;;;;;5298674;27;20033;-82
2022/06/14 03:13:43;;;;;;;14.50;8.73;;;;;;;;;;5312939;27;19965;-82
2022/06/14 03:16:23;;;;;;;19.63;10.10;;;;;;;;;;5299898;27;20027;-82
2022/06/14 03:19:17;;;;;;;17.35;9.23;;;;;;;;;;5312258;27;20073;-81
2022/06/14 03:22:02;;;;;;;14.90;8.27;;;;;;;;;;5314619;27;20044;-81
2022/06/14 03:24:44;;;;;;;18.70;9.55;;;;;;;;;;5313250;27;20066;-81
2022/06/14 03:27:42;;;;;;;20.85;12.07;;;;;;;;;;5301559;27;20118;-81
2022/06/14 03:30:40;;;;;;;14.77;9.10;;;;;;;;;;5279454;27;20048;-81
2022/06/14 03:33:14;;;;;;;16.27;8.85;;;;;;;;;;5309200;27;20088;-81
2022/06/14 03:35:47;;;;;;;18.08;8.10;;;;;;;;;;5312132;27;20105;-82
2022/06/14 03:38:32;;;;;;;16.02;10.18;;;;;;;;;;5314417;27;20024;-82
2022/06/14 03:41:04;;;;;;;21.80;10.43;;;;;;;;;;5306684;27;20040;-82
2022/06/14 03:43:36;;;;;;;19.83;10.98;;;;;;;;;;5317956;27;20044;-82
2022/06/14 03:46:10;;;;;;;25.90;11.80;;;;;;;;;;5310038;27;20099;-83
2022/06/14 03:48:43;;;;;;;18.23;10.30;;;;;;;;;;5307477;27;20388;-81
2022/06/14 03:51:34;;;;;;;17.02;9.43;;;;;;;;;;5311723;27;20041;-81
2022/06/14 03:54:14;;;;;;;21.52;9.60;;;;;;;;;;5307799;27;20499;-81
2022/06/14 03:56:48;;;;;;;22.00;10.13;;;;;;;;;;5293184;27;20041;-81
2022/06/14 03:59:22;;;;;;;18.23;10.77;;;;;;;;;;5313942;27;20021;-80
2022/06/14 04:01:58;;;;;;;16.27;9.25;;;;;;;;;;5300411;27;20392;-81
2022/06/14 04:04:29;;;;;;;23.20;10.43;;;;;;;;;;5292609;27;21311;-81
2022/06/14 04:07:06;;;;;;;18.90;10.43;;;;;;;;;;5312289;27;20043;-81
2022/06/14 04:09:59;;;;;;;19.92;11.55;;;;;;;;;;5317478;27;20279;-81
2022/06/14 04:12:42;;;;;;;21.20;11.32;;;;;;;;;;5311314;27;20560;-81
2022/06/14 04:15:25;;;;;;;18.25;10.38;;;;;;;;;;5308480;27;20055;-81
2022/06/14 04:18:02;;;;;;;14.65;8.35;;;;;;;;;;5286130;27;20036;-81
2022/06/14 04:20:41;;;;;;;12.40;7.45;;;;;;;;;;5310231;27;20154;-80
2022/06/14 04:23:21;;;;;;;9.77;7.10;;;;;;;;;;5307428;27;20036;-81
2022/06/14 04:26:02;;;;;;;15.30;8.95;;;;;;;;;;5307064;27;20101;-81
2022/06/14 04:28:44;;;;;;;17.58;8.60;;;;;;;;;;5298958;27;20381;-80
2022/06/14 04:31:28;;;;;;;18.23;9.30;;;;;;;;;;5309560;27;20025;-81
2022/06/14 04:34:15;;;;;;;14.10;8.82;;;;;;;;;;5285235;27;1071362;-81
2022/06/14 04:36:55;;;;;;;12.68;7.75;;;;;;;;;;5313958;27;20045;-81
2022/06/14 04:39:30;;;;;;;13.60;8.70;;;;;;;;;;5311189;27;20044;-81
2022/06/14 04:42:08;;;;;;;13.32;8.07;;;;;;;;;;5311528;27;20472;-81
2022/06/14 04:44:39;;;;;;;14.50;8.45;;;;;;;;;;5312121;27;20442;-81
2022/06/14 04:47:17;;;;;;;16.90;9.13;;;;;;;;;;5293738;27;20081;-81
2022/06/14 04:49:51;;;;;;;14.60;8.90;;;;;;;;;;5311389;27;20380;-81
2022/06/14 04:52:27;;;;;;;16.75;9.27;;;;;;;;;;5310541;27;20041;-81
2022/06/14 04:55:08;;;;;;;18.00;9.73;;;;;;;;;;5292753;27;20177;-81
2022/06/14 04:57:44;;;;;;;19.75;12.50;;;;;;;;;;5310890;27;20062;-81
2022/06/14 05:00:18;;;;;;;16.13;10.38;;;;;;;;;;5310994;27;20503;-81
2022/06/14 05:02:58;;;;;;;22.25;11.02;;;;;;;;;;5297033;27;20028;-81
2022/06/14 05:05:33;;;;;;;35.03;16.65;;;;;;;;;;5309031;27;20042;-81
2022/06/14 05:08:10;;;;;;;31.52;14.70;;;;;;;;;;5311536;27;20028;-81
2022/06/14 05:10:46;;;;;;;28.02;15.88;;;;;;;;;;5312515;27;20044;-81
2022/06/14 05:13:21;;;;;;;29.10;16.48;;;;;;;;;;5315915;27;20024;-81
2022/06/14 05:15:58;;;;;;;29.42;17.08;;;;;;;;;;5310365;27;20032;-81
2022/06/14 05:18:40;;;;;;;27.05;16.48;;;;;;;;;;5325322;27;20154;-81
2022/06/14 05:21:22;;;;;;;27.50;15.07;;;;;;;;;;5313927;27;20387;-82
2022/06/14 05:23:54;;;;;;;28.70;15.23;;;;;;;;;;5320642;27;20112;-81
2022/06/14 05:26:35;;;;;;;25.25;13.75;;;;;;;;;;5318923;27;20062;-81
2022/06/14 05:29:06;;;;;;;28.35;13.45;;;;;;;;;;5297764;27;20067;-81
2022/06/14 05:31:43;;;;;;;22.13;10.23;;;;;;;;;;5316084;27;20048;-81
2022/06/14 05:34:23;;;;;;;23.75;9.88;;;;;;;;;;5315784;27;20434;-81
2022/06/14 05:37:01;;;;;;;15.20;7.75;;;;;;;;;;5320148;27;20044;-81
2022/06/14 05:39:35;;;;;;;16.38;6.82;;;;;;;;;;5304379;27;20021;-82
2022/06/14 05:42:12;;;;;;;19.05;7.50;;;;;;;;;;5323378;27;20392;-81
2022/06/14 05:44:45;;;;;;;13.60;6.57;;;;;;;;;;5339201;27;20051;-82
2022/06/14 05:47:18;;;;;;;16.45;6.68;;;;;;;;;;5335381;27;20468;-82
2022/06/14 05:49:52;;;;;;;13.48;6.93;;;;;;;;;;5305306;27;20035;-81
2022/06/14 05:52:35;;;;;;;14.38;5.95;;;;;;;;;;5300140;27;20027;-81
2022/06/14 05:55:10;;;;;;;11.75;4.82;;;;;;;;;;5315282;27;20361;-83
2022/06/14 05:57:42;;;;;;;12.88;4.65;;;;;;;;;;5314773;27;20021;-83
2022/06/14 06:00:21;;;;;;;10.77;4.25;;;;;;;;;;5314634;27;20039;-83
2022/06/14 06:02:52;;;;;;;10.65;4.45;;;;;;;;;;5301727;27;20121;-83
2022/06/14 06:05:43;;;;;;;10.90;4.50;;;;;;;;;;5312724;27;20028;-80
2022/06/14 06:08:20;;;;;;;12.63;4.18;;;;;;;;;;5299411;27;20399;-80
2022/06/14 06:10:53;;;;;;;9.55;3.65;;;;;;;;;;5316590;27;20028;-81
2022/06/14 06:13:27;;;;;;;10.38;3.75;;;;;;;;;;5303780;27;20403;-81
2022/06/14 06:16:01;;;;;;;10.45;4.60;;;;;;;;;;5310084;27;20040;-82
2022/06/14 06:18:52;;;;;;;12.15;3.78;;;;;;;;;;5324818;27;20123;-82
2022/06/14 06:21:34;;;;;;;13.23;4.20;;;;;;;;;;5305424;28;20075;-82
2022/06/14 06:24:14;;;;;;;10.52;4.07;;;;;;;;;;5324074;28;20039;-82
2022/06/14 06:26:49;;;;;;;9.43;3.97;;;;;;;;;;5324500;28;20024;-82
2022/06/14 06:29:24;;;;;;;12.13;3.53;;;;;;;;;;5323538;28;20016;-82
2022/06/14 06:31:55;;;;;;;7.88;3.80;;;;;;;;;;5322738;27;20036;-81
2022/06/14 06:34:26;;;;;;;11.25;3.40;;;;;;;;;;5324310;28;20151;-81
2022/06/14 06:37:09;;;;;;;8.95;3.30;;;;;;;;;;5343781;28;20091;-81
2022/06/14 06:39:52;;;;;;;10.55;3.45;;;;;;;;;;5309130;28;20024;-81
2022/06/14 06:42:23;;;;;;;6.40;2.50;;;;;;;;;;5319373;28;20092;-82
2022/06/14 06:45:23;;;;;;;6.97;3.00;;;;;;;;;;5323968;28;20144;-82
2022/06/14 06:47:58;;;;;;;7.60;3.50;;;;;;;;;;5295567;27;20495;-82
2022/06/14 06:50:44;;;;;;;7.03;2.73;;;;;;;;;;5305249;28;20034;-82
2022/06/14 06:53:22;;;;;;;7.47;3.42;;;;;;;;;;5306064;28;20020;-82
2022/06/14 06:56:04;;;;;;;9.80;3.63;;;;;;;;;;5327787;28;20381;-82
2022/06/14 06:59:01;;;;;;;10.02;3.17;;;;;;;;;;5327692;28;20138;-82
2022/06/14 07:01:36;;;;;;;7.32;3.33;;;;;;;;;;5301617;28;20032;-82
2022/06/14 07:04:14;;;;;;;6.85;3.05;;;;;;;;;;5320736;27;20485;-82
2022/06/14 07:06:46;;;;;;;9.52;3.17;;;;;;;;;;5326700;28;20039;-82
2022/06/14 07:09:25;;;;;;;8.75;3.17;;;;;;;;;;5328092;28;20480;-82
2022/06/14 07:12:02;;;;;;;7.00;3.17;;;;;;;;;;5315953;27;20021;-82
2022/06/14 07:14:47;;;;;;;9.00;3.38;;;;;;;;;;5316510;28;20028;-82
2022/06/14 07:17:24;;;;;;;7.63;2.40;;;;;;;;;;5306593;27;20082;-82
2022/06/14 07:20:05;;;;;;;8.90;2.95;;;;;;;;;;5321058;27;20120;-82
2022/06/14 07:22:51;;;;;;;4.43;2.00;;;;;;;;;;5305705;28;20016;-82
2022/06/14 07:25:29;;;;;;;6.18;2.20;;;;;;;;;;5334736;27;20100;-82
2022/06/14 07:28:06;;;;;;;6.90;2.25;;;;;;;;;;5326855;28;20112;-82
2022/06/14 07:30:44;;;;;;;4.43;1.88;;;;;;;;;;5326631;28;20028;-82
2022/06/14 07:33:16;;;;;;;4.65;1.90;;;;;;;;;;5333798;27;20127;-82
2022/06/14 07:35:54;;;;;;;3.38;1.48;;;;;;;;;;5326967;27;20502;-82
2022/06/14 07:38:38;;;;;;;2.22;1.23;;;;;;;;;;5308251;28;20058;-82
2022/06/14 07:41:26;;;;;;;5.32;1.92;;;;;;;;;;5326804;28;20024;-82
2022/06/14 07:44:15;;;;;;;4.15;1.83;;;;;;;;;;5325853;28;20494;-82
2022/06/14 07:47:06;;;;;;;6.82;1.40;;;;;;;;;;5325909;28;20099;-82
2022/06/14 07:49:46;;;;;;;6.47;2.20;;;;;;;;;;5307646;27;20027;-82
2022/06/14 07:52:27;;;;;;;6.30;2.13;;;;;;;;;;5291404;28;20020;-82
2022/06/14 07:55:04;;;;;;;4.38;1.70;;;;;;;;;;5325174;28;20035;-82
2022/06/14 07:57:45;;;;;;;5.25;2.15;;;;;;;;;;5326030;28;20055;-82
2022/06/14 08:03:14;;;;;;;3.78;1.45;;;;;;;;;;5325386;28;20040;-82
2022/06/14 08:05:46;;;;;;;4.03;1.50;;;;;;;;;;5312324;27;20178;-82
2022/06/14 08:08:20;;;;;;;6.68;1.60;;;;;;;;;;5305052;28;20074;-82
2022/06/14 08:10:54;;;;;;;6.63;1.60;;;;;;;;;;5304732;28;20508;-82
2022/06/14 08:13:29;;;;;;;6.43;1.70;;;;;;;;;;5287187;28;20500;-82
2022/06/14 08:16:01;;;;;;;7.43;1.90;;;;;;;;;;5307876;28;20460;-82
2022/06/14 08:18:44;;;;;;;4.97;1.58;;;;;;;;;;5326652;27;20027;-82
2022/06/14 08:21:15;;;;;;;4.25;1.40;;;;;;;;;;5307859;28;20043;-82
2022/06/14 08:23:52;;;;;;;3.97;1.40;;;;;;;;;;5327342;28;20024;-82
2022/06/14 08:26:26;;;;;;;4.20;1.35;;;;;;;;;;5335142;28;20020;-82
2022/06/14 08:29:16;;;;;;;4.50;1.45;;;;;;;;;;5334129;28;20103;-82
2022/06/14 08:31:50;;;;;;;2.92;1.15;;;;;;;;;;5310091;28;20028;-82
2022/06/14 08:34:45;;;;;;;6.17;1.40;;;;;;;;;;5292133;27;20044;-82
2022/06/14 08:37:19;;;;;;;4.78;1.60;;;;;;;;;;5301066;27;20077;-82
2022/06/14 08:39:54;;;;;;;3.03;1.15;;;;;;;;;;5327299;28;20114;-82
2022/06/14 08:42:28;;;;;;;5.30;1.60;;;;;;;;;;5328097;28;20042;-82
2022/06/14 08:45:03;;;;;;;3.97;1.27;;;;;;;;;;5328625;28;30799;-82
2022/06/14 08:47:51;;;;;;;5.15;1.88;;;;;;;;;;5325043;27;20034;-82
2022/06/14 08:50:40;;;;;;;3.53;1.40;;;;;;;;;;5325435;28;20407;-82
2022/06/14 08:53:34;;;;;;;2.58;1.30;;;;;;;;;;5307145;28;20036;-82
2022/06/14 08:56:15;;;;;;;4.13;1.67;;;;;;;;;;5287025;28;20116;-82
2022/06/14 08:59:04;;;;;;;3.88;1.50;;;;;;;;;;5324689;28;20062;-82
2022/06/14 09:01:53;;;;;;;6.65;1.75;;;;;;;;;;5306352;27;20334;-82
2022/06/14 09:04:43;;;;;;;6.63;1.75;;;;;;;;;;5304030;28;20020;-82
2022/06/14 09:07:24;;;;;;;6.40;1.90;;;;;;;;;;5308743;28;20392;-82
2022/06/14 09:10:08;;;;;;;5.43;1.80;;;;;;;;;;5306131;28;20115;-82
2022/06/14 09:12:46;;;;;;;3.97;1.45;;;;;;;;;;5305897;28;20085;-82
2022/06/14 09:15:30;;;;;;;3.92;1.92;;;;;;;;;;5323838;27;20028;-82
2022/06/14 09:18:10;;;;;;;3.58;1.50;;;;;;;;;;5324263;28;20024;-82
2022/06/14 09:20:44;;;;;;;3.80;1.77;;;;;;;;;;5324610;28;20024;-82
2022/06/14 09:23:17;;;;;;;4.67;2.00;;;;;;;;;;5324234;28;20039;-82
2022/06/14 09:26:17;;;;;;;3.45;1.80;;;;;;;;;;5305953;28;20031;-82
2022/06/14 09:28:51;;;;;;;5.13;1.90;;;;;;;;;;5318879;28;20032;-82
2022/06/14 09:31:44;;;;;;;5.15;1.95;;;;;;;;;;5318953;27;20062;-82
2022/06/14 09:34:18;;;;;;;4.97;1.90;;;;;;;;;;5324138;28;20424;-82
2022/06/14 09:37:08;;;;;;;4.50;1.63;;;;;;;;;;5323910;28;20032;-82
2022/06/14 09:40:10;;;;;;;3.83;1.75;;;;;;;;;;5324471;28;20028;-83
2022/06/14 09:42:41;;;;;;;4.38;1.80;;;;;;;;;;5269007;28;20070;-83
2022/06/14 09:45:16;;;;;;;3.47;1.83;;;;;;;;;;5322844;27;20082;-83
2022/06/14 09:47:58;;;;;;;6.05;2.30;;;;;;;;;;5323979;28;20050;-83
2022/06/14 09:50:38;;;;;;;4.82;1.60;;;;;;;;;;5324700;28;20064;-83
2022/06/14 09:53:27;;;;;;;4.32;1.60;;;;;;;;;;5324738;28;20425;-83
2022/06/14 09:56:11;;;;;;;3.40;1.27;;;;;;;;;;5324255;28;20496;-83
2022/06/14 09:59:01;;;;;;;3.25;1.55;;;;;;;;;;5305138;28;20051;-83
2022/06/14 10:01:58;;;;;;;8.63;1.75;;;;;;;;;;5310457;27;20107;-82
2022/06/14 10:04:44;;;;;;;5.72;1.90;;;;;;;;;;5282299;28;20036;-82
2022/06/14 10:07:15;;;;;;;5.65;1.92;;;;;;;;;;5317269;27;20024;-83
2022/06/14 10:09:49;;;;;;;6.27;1.87;;;;;;;;;;5328784;28;20073;-83
2022/06/14 10:12:26;;;;;;;5.50;1.83;;;;;;;;;;5328871;28;20016;-82
2022/06/14 10:15:08;;;;;;;3.78;1.80;;;;;;;;;;5328477;28;20051;-83
2022/06/14 10:17:59;;;;;;;5.18;2.05;;;;;;;;;;5320651;28;20119;-83
2022/06/14 10:20:42;;;;;;;3.90;1.60;;;;;;;;;;5313198;28;20020;-84
2022/06/14 10:23:24;;;;;;;4.05;1.60;;;;;;;;;;5296459;28;20036;-83
2022/06/14 10:29:21;;;;;;;7.30;2.08;;;;;;;;;;5314283;28;20040;-83
2022/06/14 10:32:10;;;;;;;4.57;1.70;;;;;;;;;;5328067;28;20036;-82
2022/06/14 10:34:47;;;;;;;4.20;2.00;;;;;;;;;;5326454;28;20135;-82
2022/06/14 10:37:33;;;;;;;4.75;1.90;;;;;;;;;;5324412;27;20099;-82
2022/06/14 10:40:11;;;;;;;3.63;1.58;;;;;;;;;;5321425;28;20043;-82
2022/06/14 10:42:46;;;;;;;3.80;2.00;;;;;;;;;;5306685;27;20421;-82
2022/06/14 10:45:23;;;;;;;4.55;1.73;;;;;;;;;;5305707;28;20388;-82
2022/06/14 10:48:07;;;;;;;9.82;2.05;;;;;;;;;;5309228;28;20032;-83
2022/06/14 10:50:56;;;;;;;3.50;1.70;;;;;;;;;;5308606;28;20044;-82
2022/06/14 10:53:30;;;;;;;4.63;1.95;;;;;;;;;;5328023;27;20106;-82
2022/06/14 10:56:09;;;;;;;7.93;2.22;;;;;;;;;;5349062;27;20067;-83
2022/06/14 10:58:58;;;;;;;5.57;2.00;;;;;;;;;;5331331;27;20020;-83
2022/06/14 11:01:43;;;;;;;4.72;2.20;;;;;;;;;;5327267;28;20036;-82
2022/06/14 11:04:27;;;;;;;5.03;1.83;;;;;;;;;;5326732;28;20024;-82
2022/06/14 11:06:58;;;;;;;4.13;1.98;;;;;;;;;;5307772;28;20131;-82
2022/06/14 11:09:42;;;;;;;3.80;1.92;;;;;;;;;;5326062;27;20103;-82
2022/06/14 11:12:43;;;;;;;6.55;2.10;;;;;;;;;;5294180;28;20032;-83
2022/06/14 11:15:37;;;;;;;4.07;1.70;;;;;;;;;;5311593;28;20040;-83
2022/06/14 11:18:32;;;;;;;6.20;2.20;;;;;;;;;;5326378;27;20126;-83
2022/06/14 11:21:22;;;;;;;8.80;2.05;;;;;;;;;;5326397;28;20255;-83
2022/06/14 11:23:53;;;;;;;5.28;2.40;;;;;;;;;;5324137;28;20681;-83
2022/06/14 11:26:43;;;;;;;4.30;1.55;;;;;;;;;;5307732;28;20134;-83
2022/06/14 11:29:23;;;;;;;6.72;1.85;;;;;;;;;;5326887;28;20054;-83
2022/06/14 11:32:02;;;;;;;7.22;1.90;;;;;;;;;;5327064;28;20028;-83
2022/06/14 11:34:34;;;;;;;5.05;1.90;;;;;;;;;;5325952;27;20037;-83
2022/06/14 11:37:11;;;;;;;4.85;1.88;;;;;;;;;;5327015;28;20039;-83
2022/06/14 11:39:48;;;;;;;4.25;1.60;;;;;;;;;;5325652;27;20027;-83
2022/06/14 11:42:22;;;;;;;5.28;1.67;;;;;;;;;;5307438;28;20115;-83
2022/06/14 11:45:18;;;;;;;2.38;1.35;;;;;;;;;;5326587;28;20020;-83
2022/06/14 11:48:03;;;;;;;4.10;1.98;;;;;;;;;;5326743;28;20031;-83
2022/06/14 11:50:34;;;;;;;6.53;1.50;;;;;;;;;;5326467;28;20392;-83
2022/06/14 11:53:38;;;;;;;3.23;1.53;;;;;;;;;;5319881;27;20025;-83
2022/06/14 11:56:27;;;;;;;3.63;1.60;;;;;;;;;;5296136;28;20036;-83
2022/06/14 11:58:58;;;;;;;3.47;1.55;;;;;;;;;;5341766;27;20526;-83
2022/06/14 12:01:35;;;;;;;4.97;1.42;;;;;;;;;;5326170;27;20028;-83
2022/06/14 12:04:10;;;;;;;3.83;1.50;;;;;;;;;;5307784;28;20028;-83
2022/06/14 12:06:41;;;;;;;5.18;1.70;;;;;;;;;;5326001;28;20028;-83
2022/06/14 12:09:15;;;;;;;4.40;1.60;;;;;;;;;;5310467;27;20381;-83
2022/06/14 12:11:53;;;;;;;3.70;1.60;;;;;;;;;;5312123;28;20036;-83
2022/06/14 12:14:50;;;;;;;6.65;1.60;;;;;;;;;;5325301;28;20024;-83
2022/06/14 12:17:21;;;;;;;4.40;1.73;;;;;;;;;;5325307;28;20507;-83
2022/06/14 12:20:05;;;;;;;4.17;1.53;;;;;;;;;;5325801;28;20017;-83
2022/06/14 12:22:39;;;;;;;6.72;1.90;;;;;;;;;;5306205;27;20162;-83
2022/06/14 12:28:18;;;;;;;7.65;2.33;;;;;;;;;;5322893;28;20048;-83
2022/06/14 12:30:52;;;;;;;3.08;1.60;;;;;;;;;;5298989;28;20028;-83
2022/06/14 12:33:30;;;;;;;3.95;1.73;;;;;;;;;;5326470;28;20040;-83
2022/06/14 12:36:25;;;;;;;5.00;2.40;;;;;;;;;;5307268;28;20051;-83
2022/06/14 12:38:59;;;;;;;5.30;2.07;;;;;;;;;;5325895;28;20031;-83
2022/06/14 12:41:43;;;;;;;5.35;2.22;;;;;;;;;;5312087;27;20032;-82
2022/06/14 12:44:32;;;;;;;7.28;2.45;;;;;;;;;;5303990;28;20025;-83
2022/06/14 12:47:07;;;;;;;4.40;2.00;;;;;;;;;;5328949;27;20032;-83
2022/06/14 12:49:43;;;;;;;5.57;2.25;;;;;;;;;;5325693;28;20027;-83
2022/06/14 12:52:14;;;;;;;;;;;;;;;;;;5306822;28;20580;-84
2022/06/14 12:54:54;;;;;;;4.35;2.03;;;;;;;;;;5326164;28;19973;-83
2022/06/14 12:57:47;;;;;;;5.97;2.28;;;;;;;;;;5307344;28;20016;-82
2022/06/14 13:00:18;;;;;;;6.85;2.03;;;;;;;;;;5305070;28;20036;-83
2022/06/14 13:03:08;;;;;;;7.00;2.30;;;;;;;;;;5324117;27;20432;-83
2022/06/14 13:05:48;;;;;;;5.25;2.40;;;;;;;;;;5325552;28;20051;-83
2022/06/14 13:08:31;;;;;;;4.47;1.90;;;;;;;;;;5306443;28;20024;-83
2022/06/14 13:11:21;;;;;;;5.15;2.33;;;;;;;;;;5324873;28;20032;-83
2022/06/14 13:14:05;;;;;;;6.47;2.22;;;;;;;;;;5320513;27;20039;-83
2022/06/14 13:16:51;;;;;;;5.68;2.22;;;;;;;;;;5314253;28;20081;-83
2022/06/14 13:19:31;;;;;;;6.05;2.50;;;;;;;;;;5306875;27;20038;-82
2022/06/14 13:22:05;;;;;;;7.00;2.63;;;;;;;;;;5303867;28;20024;-83
2022/06/14 13:24:50;;;;;;;6.68;2.30;;;;;;;;;;5293504;28;20067;-82
2022/06/14 13:27:51;;;;;;;5.85;1.98;;;;;;;;;;5328239;28;20376;-82
2022/06/14 13:30:25;;;;;;;3.95;2.20;;;;;;;;;;5330563;28;20078;-81
2022/06/14 13:33:03;;;;;;;7.10;1.95;;;;;;;;;;5336573;27;20040;-83
2022/06/14 13:35:44;;;;;;;8.70;3.13;;;;;;;;;;5315844;28;20028;-82
2022/06/14 13:38:18;;;;;;;6.43;2.42;;;;;;;;;;5331608;27;20039;-82
2022/06/14 13:40:59;;;;;;;5.75;2.00;;;;;;;;;;5335059;28;20048;-82
2022/06/14 13:43:35;;;;;;;5.50;2.20;;;;;;;;;;5329938;28;20035;-82
2022/06/14 13:46:15;;;;;;;6.10;2.83;;;;;;;;;;5328635;28;20028;-82
2022/06/14 13:48:50;;;;;;;4.45;2.03;;;;;;;;;;5316918;27;20044;-82
2022/06/14 13:51:37;;;;;;;6.10;2.03;;;;;;;;;;5312017;28;20036;-82
2022/06/14 13:54:16;;;;;;;5.22;2.28;;;;;;;;;;5326909;28;20604;-82
2022/06/14 13:56:50;;;;;;;6.38;2.90;;;;;;;;;;5326458;28;20024;-83
2022/06/14 13:59:24;;;;;;;6.85;2.80;;;;;;;;;;5329538;28;20064;-82
2022/06/14 14:02:07;;;;;;;4.20;2.10;;;;;;;;;;5298775;28;20031;-83
2022/06/14 14:04:38;;;;;;;4.70;2.67;;;;;;;;;;5313772;27;20082;-82
2022/06/14 14:07:22;;;;;;;6.23;2.67;;;;;;;;;;5331963;27;20035;-82
2022/06/14 14:10:08;;;;;;;5.28;2.40;;;;;;;;;;5344697;27;20056;-82
2022/06/14 14:12:46;;;;;;;5.47;2.55;;;;;;;;;;5329155;28;20024;-82
2022/06/14 14:15:26;;;;;;;4.93;2.42;;;;;;;;;;5328217;28;20020;-82
2022/06/14 14:18:04;;;;;;;5.68;2.25;;;;;;;;;;5327502;27;20533;-82
2022/06/14 14:20:41;;;;;;;4.80;2.05;;;;;;;;;;5332972;28;20035;-82
2022/06/14 14:23:18;;;;;;;5.15;2.50;;;;;;;;;;5331304;28;20378;-83
2022/06/14 14:26:02;;;;;;;8.05;2.80;;;;;;;;;;5344305;27;20472;-82
2022/06/14 14:28:49;;;;;;;8.85;2.47;;;;;;;;;;5328169;28;20075;-82
2022/06/14 14:31:25;;;;;;;7.95;3.13;;;;;;;;;;5328236;28;20976;-82
2022/06/14 14:34:01;;;;;;;7.10;2.67;;;;;;;;;;5327969;28;20033;-82
2022/06/14 14:36:44;;;;;;;5.82;2.45;;;;;;;;;;5325759;27;20028;-82
2022/06/14 14:39:18;;;;;;;17.25;3.58;;;;;;;;;;5308858;27;20171;-82
2022/06/14 14:42:01;;;;;;;6.45;3.00;;;;;;;;;;5306871;28;20028;-82
2022/06/14 14:44:33;;;;;;;7.95;2.40;;;;;;;;;;5287522;28;20016;-81
2022/06/14 14:47:13;;;;;;;5.13;2.10;;;;;;;;;;5320811;28;20092;-82
2022/06/14 14:49:44;;;;;;;22.08;3.22;;;;;;;;;;5309378;28;20089;-82
2022/06/14 14:52:21;;;;;;;10.60;2.50;;;;;;;;;;5326029;27;20024;-82
2022/06/14 14:55:13;;;;;;;8.18;2.53;;;;;;;;;;5306154;28;20021;-82
2022/06/14 14:57:51;;;;;;;11.13;2.60;;;;;;;;;;5325350;28;20028;-82
2022/06/14 15:05:20;;;;;;;9.02;2.65;;;;;;;;;;5304422;27;20035;-82
2022/06/14 15:06:14;;;;;;;5.70;2.67;;;;;;;;;;5326513;27;20495;-82
2022/06/14 15:08:52;;;;;;;6.65;2.78;;;;;;;;;;5327642;28;20025;-82
2022/06/14 15:11:25;;;;;;;7.60;2.53;;;;;;;;;;5327205;28;20430;-82
2022/06/14 15:13:57;;;;;;;6.78;2.53;;;;;;;;;;5326675;27;20055;-82
2022/06/14 15:16:35;;;;;;;5.90;2.40;;;;;;;;;;5326983;28;20069;-82
2022/06/14 15:22:13;;;;;;;5.28;2.40;;;;;;;;;;5316551;28;20036;-82
2022/06/14 15:24:49;;;;;;;6.53;2.25;;;;;;;;;;5308466;28;20130;-82
2022/06/14 15:27:41;;;;;;;6.18;2.20;;;;;;;;;;5320113;27;20040;-82
2022/06/14 15:30:34;;;;;;;8.20;2.20;;;;;;;;;;5306392;28;20102;-82
2022/06/14 15:33:19;;;;;;;6.38;2.17;;;;;;;;;;5321866;28;20044;-82
2022/06/14 15:35:53;;;;;;;4.95;1.73;;;;;;;;;;5324954;27;20034;-82
2022/06/14 15:38:26;;;;;;;4.55;2.08;;;;;;;;;;5320853;27;20047;-82
2022/06/14 15:41:03;;;;;;;5.60;1.98;;;;;;;;;;5317312;28;20051;-81
2022/06/14 15:43:34;;;;;;;7.28;1.63;;;;;;;;;;5314629;28;20016;-82
2022/06/14 15:46:17;;;;;;;6.82;2.40;;;;;;;;;;5328428;28;20039;-82
2022/06/14 15:48:58;;;;;;;6.30;2.03;;;;;;;;;;5322372;28;20024;-82
2022/06/14 15:51:30;;;;;;;6.75;2.38;;;;;;;;;;5309901;27;20147;-82
2022/06/14 15:54:03;;;;;;;8.50;1.90;;;;;;;;;;5338710;28;20028;-82
2022/06/14 15:56:37;;;;;;;6.22;1.88;;;;;;;;;;5309219;28;20087;-82
2022/06/14 15:59:18;;;;;;;6.22;2.45;;;;;;;;;;5324537;27;20028;-82
2022/06/14 16:01:50;;;;;;;6.22;2.05;;;;;;;;;;5316607;27;20031;-82
2022/06/14 16:04:21;;;;;;;6.57;2.00;;;;;;;;;;5326424;27;20380;-82